sensor_id;sensor_type;location;lat;lon;timestamp;temperature;humidity
27258;DHT22;62045;49.986;8.672;2023-01-16T00:03:33;16.50;58.20
27258;DHT22;62045;49.986;8.672;2023-01-16T00:08:33;16.50;58.20
27258;DHT22;62045;49.986;8.672;2023-01-16T00:13:34;16.50;58.10
27258;DHT22;62045;49.986;8.672;2023-01-16T00:18:36;16.60;58.00
27258;DHT22;62045;49.986;8.672;2023-01-16T00:23:37;16.70;58.00
27258;DHT22;62045;49.986;8.672;2023-01-16T00:28:38;16.70;57.90
27258;DHT22;62045;49.986;8.672;2023-01-16T00:33:40;16.70;57.90
27258;DHT22;62045;49.986;8.672;2023-01-16T00:38:40;16.70;57.90
27258;DHT22;62045;49.986;8.672;2023-01-16T00:43:41;16.70;57.90
27258;DHT22;62045;49.986;8.672;2023-01-16T00:48:43;16.70;58.10
27258;DHT22;62045;49.986;8.672;2023-01-16T00:53:44;16.60;58.10
27258;DHT22;62045;49.986;8.672;2023-01-16T00:58:45;16.60;58.20
27258;DHT22;62045;49.986;8.672;2023-01-16T01:03:47;16.50;58.20
27258;DHT22;62045;49.986;8.672;2023-01-16T01:08:47;16.50;58.30
27258;DHT22;62045;49.986;8.672;2023-01-16T01:13:48;16.50;58.20
27258;DHT22;62045;49.986;8.672;2023-01-16T01:18:50;16.60;58.20
27258;DHT22;62045;49.986;8.672;2023-01-16T01:23:51;16.70;58.10
27258;DHT22;62045;49.986;8.672;2023-01-16T01:28:52;16.70;58.00
27258;DHT22;62045;49.986;8.672;2023-01-16T01:33:54;16.70;58.00
27258;DHT22;62045;49.986;8.672;2023-01-16T01:38:55;16.60;57.90
27258;DHT22;62045;49.986;8.672;2023-01-16T01:43:56;16.60;58.00
27258;DHT22;62045;49.986;8.672;2023-01-16T01:49:04;16.60;58.10
27258;DHT22;62045;49.986;8.672;2023-01-16T01:54:10;16.50;58.10
27258;DHT22;62045;49.986;8.672;2023-01-16T01:59:16;16.40;58.20
27258;DHT22;62045;49.986;8.672;2023-01-16T02:04:24;16.50;58.30
27258;DHT22;62045;49.986;8.672;2023-01-16T02:09:26;16.40;58.20
27258;DHT22;62045;49.986;8.672;2023-01-16T02:14:29;16.50;58.20
27258;DHT22;62045;49.986;8.672;2023-01-16T02:19:39;16.60;58.10
27258;DHT22;62045;49.986;8.672;2023-01-16T02:25:02;16.60;57.90
27258;DHT22;62045;49.986;8.672;2023-01-16T02:30:23;16.60;57.90
27258;DHT22;62045;49.986;8.672;2023-01-16T02:35:54;16.60;57.90
27258;DHT22;62045;49.986;8.672;2023-01-16T02:41:09;16.60;57.90
27258;DHT22;62045;49.986;8.672;2023-01-16T02:46:15;16.60;58.00
27258;DHT22;62045;49.986;8.672;2023-01-16T02:51:24;16.50;58.00
27258;DHT22;62045;49.986;8.672;2023-01-16T02:56:31;16.40;58.10
27258;DHT22;62045;49.986;8.672;2023-01-16T03:01:34;16.40;58.20
27258;DHT22;62045;49.986;8.672;2023-01-16T03:06:42;16.40;58.10
27258;DHT22;62045;49.986;8.672;2023-01-16T03:11:55;16.50;58.10
27258;DHT22;62045;49.986;8.672;2023-01-16T03:17:11;16.50;58.00
27258;DHT22;62045;49.986;8.672;2023-01-16T03:22:20;16.60;57.90
27258;DHT22;62045;49.986;8.672;2023-01-16T03:27:31;16.70;57.90
27258;DHT22;62045;49.986;8.672;2023-01-16T03:32:37;16.60;57.90
27258;DHT22;62045;49.986;8.672;2023-01-16T03:37:45;16.60;57.90
27258;DHT22;62045;49.986;8.672;2023-01-16T03:42:51;16.60;58.00
27258;DHT22;62045;49.986;8.672;2023-01-16T03:48:06;16.60;58.10
27258;DHT22;62045;49.986;8.672;2023-01-16T03:53:12;16.50;58.10
27258;DHT22;62045;49.986;8.672;2023-01-16T03:58:19;16.40;58.20
27258;DHT22;62045;49.986;8.672;2023-01-16T04:03:26;16.40;58.20
27258;DHT22;62045;49.986;8.672;2023-01-16T04:08:33;16.50;58.20
27258;DHT22;62045;49.986;8.672;2023-01-16T04:13:37;16.50;58.10
27258;DHT22;62045;49.986;8.672;2023-01-16T04:18:39;16.60;58.00
27258;DHT22;62045;49.986;8.672;2023-01-16T04:23:43;16.60;57.90
27258;DHT22;62045;49.986;8.672;2023-01-16T04:28:44;16.60;57.90
27258;DHT22;62045;49.986;8.672;2023-01-16T04:33:44;16.60;57.90
27258;DHT22;62045;49.986;8.672;2023-01-16T04:38:46;16.50;57.90
27258;DHT22;62045;49.986;8.672;2023-01-16T04:43:47;16.50;58.00
27258;DHT22;62045;49.986;8.672;2023-01-16T04:48:48;16.40;58.00
27258;DHT22;62045;49.986;8.672;2023-01-16T04:53:50;16.40;58.10
27258;DHT22;62045;49.986;8.672;2023-01-16T04:58:50;16.30;58.20
27258;DHT22;62045;49.986;8.672;2023-01-16T05:03:51;16.30;58.30
27258;DHT22;62045;49.986;8.672;2023-01-16T05:08:53;16.30;58.30
27258;DHT22;62045;49.986;8.672;2023-01-16T05:13:54;16.40;58.20
27258;DHT22;62045;49.986;8.672;2023-01-16T05:18:54;16.50;58.10
27258;DHT22;62045;49.986;8.672;2023-01-16T05:23:57;16.60;58.00
27258;DHT22;62045;49.986;8.672;2023-01-16T05:28:57;16.70;57.80
27258;DHT22;62045;49.986;8.672;2023-01-16T05:34:00;16.80;57.70
27258;DHT22;62045;49.986;8.672;2023-01-16T05:39:05;16.80;57.60
27258;DHT22;62045;49.986;8.672;2023-01-16T05:44:05;16.80;57.60
27258;DHT22;62045;49.986;8.672;2023-01-16T05:49:06;16.80;57.60
27258;DHT22;62045;49.986;8.672;2023-01-16T05:54:11;16.70;57.50
27258;DHT22;62045;49.986;8.672;2023-01-16T05:59:12;16.60;57.60
27258;DHT22;62045;49.986;8.672;2023-01-16T06:04:12;16.60;57.70
27258;DHT22;62045;49.986;8.672;2023-01-16T06:09:15;16.50;57.70
27258;DHT22;62045;49.986;8.672;2023-01-16T06:14:16;16.40;57.90
27258;DHT22;62045;49.986;8.672;2023-01-16T06:19:16;16.40;57.90
27258;DHT22;62045;49.986;8.672;2023-01-16T06:24:18;16.50;58.00
27258;DHT22;62045;49.986;8.672;2023-01-16T06:29:19;16.70;57.80
27258;DHT22;62045;49.986;8.672;2023-01-16T06:34:20;16.80;57.70
27258;DHT22;62045;49.986;8.672;2023-01-16T06:39:22;16.80;57.60
27258;DHT22;62045;49.986;8.672;2023-01-16T06:44:22;16.80;57.70
27258;DHT22;62045;49.986;8.672;2023-01-16T06:49:23;16.80;57.70
27258;DHT22;62045;49.986;8.672;2023-01-16T06:54:25;16.70;57.70
27258;DHT22;62045;49.986;8.672;2023-01-16T06:59:26;16.60;57.70
27258;DHT22;62045;49.986;8.672;2023-01-16T07:04:27;16.60;57.80
27258;DHT22;62045;49.986;8.672;2023-01-16T07:09:29;16.50;57.90
27258;DHT22;62045;49.986;8.672;2023-01-16T07:14:29;16.50;58.00
27258;DHT22;62045;49.986;8.672;2023-01-16T07:19:30;16.40;58.10
27258;DHT22;62045;49.986;8.672;2023-01-16T07:24:35;16.40;58.10
27258;DHT22;62045;49.986;8.672;2023-01-16T07:29:37;16.50;58.00
27258;DHT22;62045;49.986;8.672;2023-01-16T07:34:38;16.60;57.80
27258;DHT22;62045;49.986;8.672;2023-01-16T07:39:40;16.70;57.70
27258;DHT22;62045;49.986;8.672;2023-01-16T07:44:40;16.70;57.70
27258;DHT22;62045;49.986;8.672;2023-01-16T07:49:41;16.60;57.60
27258;DHT22;62045;49.986;8.672;2023-01-16T07:54:43;16.60;57.60
27258;DHT22;62045;49.986;8.672;2023-01-16T07:59:44;16.50;57.60
27258;DHT22;62045;49.986;8.672;2023-01-16T08:04:44;16.40;57.70
27258;DHT22;62045;49.986;8.672;2023-01-16T08:09:46;16.40;57.80
27258;DHT22;62045;49.986;8.672;2023-01-16T08:14:47;16.30;57.90
27258;DHT22;62045;49.986;8.672;2023-01-16T08:19:48;16.30;57.90
27258;DHT22;62045;49.986;8.672;2023-01-16T08:24:50;16.40;57.90
27258;DHT22;62045;49.986;8.672;2023-01-16T08:29:50;16.50;57.70
27258;DHT22;62045;49.986;8.672;2023-01-16T08:34:51;16.50;57.60
27258;DHT22;62045;49.986;8.672;2023-01-16T08:39:53;16.50;57.40
27258;DHT22;62045;49.986;8.672;2023-01-16T08:44:54;16.50;57.40
27258;DHT22;62045;49.986;8.672;2023-01-16T08:49:55;16.50;57.50
27258;DHT22;62045;49.986;8.672;2023-01-16T08:54:57;16.40;57.50
27258;DHT22;62045;49.986;8.672;2023-01-16T08:59:58;16.40;57.50
27258;DHT22;62045;49.986;8.672;2023-01-16T09:04:59;16.30;57.60
27258;DHT22;62045;49.986;8.672;2023-01-16T09:10:01;16.20;57.70
27258;DHT22;62045;49.986;8.672;2023-01-16T09:15:02;16.30;57.80
27258;DHT22;62045;49.986;8.672;2023-01-16T09:20:04;16.40;57.80
27258;DHT22;62045;49.986;8.672;2023-01-16T09:25:07;16.50;57.60
27258;DHT22;62045;49.986;8.672;2023-01-16T09:30:09;16.60;57.40
27258;DHT22;62045;49.986;8.672;2023-01-16T09:35:10;16.70;57.00
27258;DHT22;62045;49.986;8.672;2023-01-16T09:40:16;16.70;56.90
27258;DHT22;62045;49.986;8.672;2023-01-16T09:45:21;16.70;56.80
27258;DHT22;62045;49.986;8.672;2023-01-16T09:50:29;16.60;56.60
27258;DHT22;62045;49.986;8.672;2023-01-16T09:55:37;16.50;56.50
27258;DHT22;62045;49.986;8.672;2023-01-16T10:00:39;16.50;56.60
27258;DHT22;62045;49.986;8.672;2023-01-16T10:05:45;16.40;56.50
27258;DHT22;62045;49.986;8.672;2023-01-16T10:10:54;16.30;56.60
27258;DHT22;62045;49.986;8.672;2023-01-16T10:16:01;16.30;56.80
27258;DHT22;62045;49.986;8.672;2023-01-16T10:21:39;16.30;57.00
27258;DHT22;62045;49.986;8.672;2023-01-16T10:26:49;16.40;56.90
27258;DHT22;62045;49.986;8.672;2023-01-16T10:31:57;16.60;56.70
27258;DHT22;62045;49.986;8.672;2023-01-16T10:36:59;16.70;56.60
27258;DHT22;62045;49.986;8.672;2023-01-16T10:42:10;16.70;56.50
27258;DHT22;62045;49.986;8.672;2023-01-16T10:47:12;16.70;56.50
27258;DHT22;62045;49.986;8.672;2023-01-16T10:52:14;16.70;56.50
27258;DHT22;62045;49.986;8.672;2023-01-16T10:57:18;16.60;56.60
27258;DHT22;62045;49.986;8.672;2023-01-16T11:02:25;16.50;56.60
27258;DHT22;62045;49.986;8.672;2023-01-16T11:07:29;16.50;56.80
27258;DHT22;62045;49.986;8.672;2023-01-16T11:12:31;16.40;56.90
27258;DHT22;62045;49.986;8.672;2023-01-16T11:17:34;16.30;57.00
27258;DHT22;62045;49.986;8.672;2023-01-16T11:22:38;16.30;57.10
27258;DHT22;62045;49.986;8.672;2023-01-16T11:27:41;16.40;57.10
27258;DHT22;62045;49.986;8.672;2023-01-16T11:32:42;16.50;56.90
27258;DHT22;62045;49.986;8.672;2023-01-16T11:37:45;16.70;57.40
27258;DHT22;62045;49.986;8.672;2023-01-16T11:42:55;16.70;56.80
27258;DHT22;62045;49.986;8.672;2023-01-16T11:47:56;16.70;56.70
27258;DHT22;62045;49.986;8.672;2023-01-16T11:53:01;16.70;56.70
27258;DHT22;62045;49.986;8.672;2023-01-16T11:58:09;16.70;57.30
27258;DHT22;62045;49.986;8.672;2023-01-16T12:09:06;16.60;56.70
27258;DHT22;62045;49.986;8.672;2023-01-16T12:14:19;16.50;56.80
27258;DHT22;62045;49.986;8.672;2023-01-16T12:19:43;16.40;56.90
27258;DHT22;62045;49.986;8.672;2023-01-16T12:24:55;16.50;57.10
27258;DHT22;62045;49.986;8.672;2023-01-16T12:30:05;16.40;57.10
27258;DHT22;62045;49.986;8.672;2023-01-16T12:35:25;16.50;57.10
27258;DHT22;62045;49.986;8.672;2023-01-16T12:40:32;16.60;56.90
27258;DHT22;62045;49.986;8.672;2023-01-16T12:45:44;16.70;56.80
27258;DHT22;62045;49.986;8.672;2023-01-16T12:50:57;16.70;56.70
27258;DHT22;62045;49.986;8.672;2023-01-16T12:56:14;16.70;56.70
27258;DHT22;62045;49.986;8.672;2023-01-16T13:01:24;16.60;56.70
27258;DHT22;62045;49.986;8.672;2023-01-16T13:06:32;16.60;56.70
27258;DHT22;62045;49.986;8.672;2023-01-16T13:17:01;16.40;56.90
27258;DHT22;62045;49.986;8.672;2023-01-16T13:22:06;16.40;57.00
27258;DHT22;62045;49.986;8.672;2023-01-16T13:27:15;16.30;57.10
27258;DHT22;62045;49.986;8.672;2023-01-16T13:32:24;16.40;57.20
27258;DHT22;62045;49.986;8.672;2023-01-16T13:37:37;16.40;57.10
27258;DHT22;62045;49.986;8.672;2023-01-16T13:42:49;16.50;57.10
27258;DHT22;62045;49.986;8.672;2023-01-16T13:47:57;16.60;57.00
27258;DHT22;62045;49.986;8.672;2023-01-16T13:53:01;16.60;57.10
27258;DHT22;62045;49.986;8.672;2023-01-16T13:58:08;16.60;57.10
27258;DHT22;62045;49.986;8.672;2023-01-16T14:03:19;16.50;57.10
27258;DHT22;62045;49.986;8.672;2023-01-16T14:08:50;16.50;57.20
27258;DHT22;62045;49.986;8.672;2023-01-16T14:14:20;16.40;57.30
27258;DHT22;62045;49.986;8.672;2023-01-16T14:19:22;16.40;57.50
27258;DHT22;62045;49.986;8.672;2023-01-16T14:24:23;16.30;57.60
27258;DHT22;62045;49.986;8.672;2023-01-16T14:29:26;16.30;57.70
27258;DHT22;62045;49.986;8.672;2023-01-16T14:34:33;16.40;57.70
27258;DHT22;62045;49.986;8.672;2023-01-16T14:39:37;16.60;57.50
27258;DHT22;62045;49.986;8.672;2023-01-16T14:45:09;16.70;57.30
27258;DHT22;62045;49.986;8.672;2023-01-16T14:50:16;16.80;57.20
27258;DHT22;62045;49.986;8.672;2023-01-16T14:55:17;16.80;57.10
27258;DHT22;62045;49.986;8.672;2023-01-16T15:00:20;16.70;57.10
27258;DHT22;62045;49.986;8.672;2023-01-16T15:05:29;16.70;57.20
27258;DHT22;62045;49.986;8.672;2023-01-16T15:10:36;16.70;57.30
27258;DHT22;62045;49.986;8.672;2023-01-16T15:15:41;16.60;57.30
27258;DHT22;62045;49.986;8.672;2023-01-16T15:20:45;16.50;57.40
27258;DHT22;62045;49.986;8.672;2023-01-16T15:26:10;16.50;57.50
27258;DHT22;62045;49.986;8.672;2023-01-16T15:31:15;16.40;57.60
27258;DHT22;62045;49.986;8.672;2023-01-16T15:36:24;16.30;57.70
27258;DHT22;62045;49.986;8.672;2023-01-16T15:41:27;16.20;57.80
27258;DHT22;62045;49.986;8.672;2023-01-16T15:46:49;16.20;57.80
27258;DHT22;62045;49.986;8.672;2023-01-16T15:51:55;16.20;57.90
27258;DHT22;62045;49.986;8.672;2023-01-16T15:56:56;16.10;58.00
27258;DHT22;62045;49.986;8.672;2023-01-16T16:02:13;16.10;58.10
27258;DHT22;62045;49.986;8.672;2023-01-16T16:07:17;16.10;58.20
27258;DHT22;62045;49.986;8.672;2023-01-16T16:12:19;16.00;58.20
27258;DHT22;62045;49.986;8.672;2023-01-16T16:17:22;16.00;58.20
27258;DHT22;62045;49.986;8.672;2023-01-16T16:22:25;16.00;58.30
27258;DHT22;62045;49.986;8.672;2023-01-16T16:27:25;15.90;58.40
27258;DHT22;62045;49.986;8.672;2023-01-16T16:32:26;15.90;58.40
27258;DHT22;62045;49.986;8.672;2023-01-16T16:37:28;15.80;58.40
27258;DHT22;62045;49.986;8.672;2023-01-16T16:42:51;15.80;58.40
27258;DHT22;62045;49.986;8.672;2023-01-16T16:48:18;15.80;58.50
27258;DHT22;62045;49.986;8.672;2023-01-16T16:53:25;15.70;58.60
27258;DHT22;62045;49.986;8.672;2023-01-16T16:58:27;15.70;58.70
27258;DHT22;62045;49.986;8.672;2023-01-16T17:03:30;15.70;58.70
27258;DHT22;62045;49.986;8.672;2023-01-16T17:08:32;15.60;58.70
27258;DHT22;62045;49.986;8.672;2023-01-16T17:13:33;15.60;58.90
27258;DHT22;62045;49.986;8.672;2023-01-16T17:18:34;15.60;59.40
27258;DHT22;62045;49.986;8.672;2023-01-16T17:23:36;15.60;60.10
27258;DHT22;62045;49.986;8.672;2023-01-16T17:28:37;15.80;61.00
27258;DHT22;62045;49.986;8.672;2023-01-16T17:33:38;16.10;60.40
27258;DHT22;62045;49.986;8.672;2023-01-16T17:38:41;16.20;60.00
27258;DHT22;62045;49.986;8.672;2023-01-16T17:43:41;16.30;59.20
27258;DHT22;62045;49.986;8.672;2023-01-16T17:48:42;16.20;58.90
27258;DHT22;62045;49.986;8.672;2023-01-16T17:53:45;16.20;58.70
27258;DHT22;62045;49.986;8.672;2023-01-16T17:58:46;16.20;58.70
27258;DHT22;62045;49.986;8.672;2023-01-16T18:03:49;16.20;58.80
27258;DHT22;62045;49.986;8.672;2023-01-16T18:08:53;16.10;58.80
27258;DHT22;62045;49.986;8.672;2023-01-16T18:13:54;16.10;58.80
27258;DHT22;62045;49.986;8.672;2023-01-16T18:18:55;16.10;58.90
27258;DHT22;62045;49.986;8.672;2023-01-16T18:23:57;16.00;58.90
27258;DHT22;62045;49.986;8.672;2023-01-16T18:28:58;16.00;59.00
27258;DHT22;62045;49.986;8.672;2023-01-16T18:33:59;15.90;59.10
27258;DHT22;62045;49.986;8.672;2023-01-16T18:39:01;15.90;59.10
27258;DHT22;62045;49.986;8.672;2023-01-16T18:44:02;15.80;59.20
27258;DHT22;62045;49.986;8.672;2023-01-16T18:49:02;15.80;59.20
27258;DHT22;62045;49.986;8.672;2023-01-16T18:54:10;15.80;59.30
27258;DHT22;62045;49.986;8.672;2023-01-16T18:59:13;15.70;59.30
27258;DHT22;62045;49.986;8.672;2023-01-16T19:04:14;15.70;59.30
27258;DHT22;62045;49.986;8.672;2023-01-16T19:09:17;15.70;59.40
27258;DHT22;62045;49.986;8.672;2023-01-16T19:14:18;15.70;59.50
27258;DHT22;62045;49.986;8.672;2023-01-16T19:19:19;15.70;59.50
27258;DHT22;62045;49.986;8.672;2023-01-16T19:24:21;15.60;59.50
27258;DHT22;62045;49.986;8.672;2023-01-16T19:29:22;15.60;59.50
27258;DHT22;62045;49.986;8.672;2023-01-16T19:34:23;15.60;59.50
27258;DHT22;62045;49.986;8.672;2023-01-16T19:39:25;15.60;59.60
27258;DHT22;62045;49.986;8.672;2023-01-16T19:44:26;15.50;59.60
27258;DHT22;62045;49.986;8.672;2023-01-16T19:49:27;15.60;60.20
27258;DHT22;62045;49.986;8.672;2023-01-16T19:54:30;15.60;59.60
27258;DHT22;62045;49.986;8.672;2023-01-16T19:59:30;15.60;59.40
27258;DHT22;62045;49.986;8.672;2023-01-16T20:04:33;15.60;59.50
27258;DHT22;62045;49.986;8.672;2023-01-16T20:09:36;15.60;59.60
27258;DHT22;62045;49.986;8.672;2023-01-16T20:14:37;15.60;59.40
27258;DHT22;62045;49.986;8.672;2023-01-16T20:19:37;15.60;59.30
27258;DHT22;62045;49.986;8.672;2023-01-16T20:24:40;15.60;59.30
27258;DHT22;62045;49.986;8.672;2023-01-16T20:29:45;15.60;59.30
27258;DHT22;62045;49.986;8.672;2023-01-16T20:34:46;15.60;59.40
27258;DHT22;62045;49.986;8.672;2023-01-16T20:39:48;15.60;59.40
27258;DHT22;62045;49.986;8.672;2023-01-16T20:44:48;15.60;59.50
27258;DHT22;62045;49.986;8.672;2023-01-16T20:49:49;15.50;59.60
27258;DHT22;62045;49.986;8.672;2023-01-16T20:54:51;15.60;59.60
27258;DHT22;62045;49.986;8.672;2023-01-16T20:59:52;15.50;59.60
27258;DHT22;62045;49.986;8.672;2023-01-16T21:04:53;15.50;59.70
27258;DHT22;62045;49.986;8.672;2023-01-16T21:09:55;15.50;59.60
27258;DHT22;62045;49.986;8.672;2023-01-16T21:14:55;15.50;59.60
27258;DHT22;62045;49.986;8.672;2023-01-16T21:19:56;15.50;59.60
27258;DHT22;62045;49.986;8.672;2023-01-16T21:24:59;15.50;59.60
27258;DHT22;62045;49.986;8.672;2023-01-16T21:30:01;15.40;59.60
27258;DHT22;62045;49.986;8.672;2023-01-16T21:35:03;15.50;59.60
27258;DHT22;62045;49.986;8.672;2023-01-16T21:40:07;15.40;59.70
27258;DHT22;62045;49.986;8.672;2023-01-16T21:45:10;15.40;59.70
27258;DHT22;62045;49.986;8.672;2023-01-16T21:50:11;15.40;59.70
27258;DHT22;62045;49.986;8.672;2023-01-16T21:55:13;15.40;59.80
27258;DHT22;62045;49.986;8.672;2023-01-16T22:00:14;15.40;59.80
27258;DHT22;62045;49.986;8.672;2023-01-16T22:05:15;15.30;59.80
27258;DHT22;62045;49.986;8.672;2023-01-16T22:10:17;15.30;59.70
27258;DHT22;62045;49.986;8.672;2023-01-16T22:15:18;15.30;59.80
27258;DHT22;62045;49.986;8.672;2023-01-16T22:20:20;15.30;59.80
27258;DHT22;62045;49.986;8.672;2023-01-16T22:25:24;15.30;59.80
27258;DHT22;62045;49.986;8.672;2023-01-16T22:30:25;15.30;59.80
27258;DHT22;62045;49.986;8.672;2023-01-16T22:35:25;15.20;59.80
27258;DHT22;62045;49.986;8.672;2023-01-16T22:40:28;15.20;59.80
27258;DHT22;62045;49.986;8.672;2023-01-16T22:45:28;15.20;59.70
27258;DHT22;62045;49.986;8.672;2023-01-16T22:50:29;15.40;59.90
27258;DHT22;62045;49.986;8.672;2023-01-16T22:55:31;15.40;59.50
27258;DHT22;62045;49.986;8.672;2023-01-16T23:00:32;15.50;59.40
27258;DHT22;62045;49.986;8.672;2023-01-16T23:05:32;15.60;59.20
27258;DHT22;62045;49.986;8.672;2023-01-16T23:10:34;15.60;59.20
27258;DHT22;62045;49.986;8.672;2023-01-16T23:15:35;15.60;59.10
27258;DHT22;62045;49.986;8.672;2023-01-16T23:20:36;15.60;59.10
27258;DHT22;62045;49.986;8.672;2023-01-16T23:25:38;15.60;59.10
27258;DHT22;62045;49.986;8.672;2023-01-16T23:30:39;15.60;59.20
27258;DHT22;62045;49.986;8.672;2023-01-16T23:35:39;15.60;59.30
27258;DHT22;62045;49.986;8.672;2023-01-16T23:40:41;15.60;59.20
27258;DHT22;62045;49.986;8.672;2023-01-16T23:45:42;15.50;59.30
27258;DHT22;62045;49.986;8.672;2023-01-16T23:50:43;15.50;59.40
27258;DHT22;62045;49.986;8.672;2023-01-16T23:55:45;15.40;59.30
